sensor_id;sensor_type;location;lat;lon;timestamp;temperature;humidity
5697;DHT22;2873;50.966;7.210;2023-09-08T00:02:23;23.30;99.90
5697;DHT22;2873;50.966;7.210;2023-09-08T00:04:49;23.40;99.90
5697;DHT22;2873;50.966;7.210;2023-09-08T00:07:15;23.30;99.90
5697;DHT22;2873;50.966;7.210;2023-09-08T00:09:40;23.40;99.90
5697;DHT22;2873;50.966;7.210;2023-09-08T00:12:06;23.30;99.90
5697;DHT22;2873;50.966;7.210;2023-09-08T00:14:32;23.30;99.90
5697;DHT22;2873;50.966;7.210;2023-09-08T00:16:57;23.40;99.90
5697;DHT22;2873;50.966;7.210;2023-09-08T00:19:23;23.40;99.90
5697;DHT22;2873;50.966;7.210;2023-09-08T00:21:49;23.10;99.90
5697;DHT22;2873;50.966;7.210;2023-09-08T00:24:15;23.10;99.90
5697;DHT22;2873;50.966;7.210;2023-09-08T00:26:40;23.00;99.90
5697;DHT22;2873;50.966;7.210;2023-09-08T00:29:06;23.00;99.90
5697;DHT22;2873;50.966;7.210;2023-09-08T00:31:32;23.00;99.90
5697;DHT22;2873;50.966;7.210;2023-09-08T00:33:58;23.00;99.90
5697;DHT22;2873;50.966;7.210;2023-09-08T00:36:23;23.10;99.90
5697;DHT22;2873;50.966;7.210;2023-09-08T00:38:49;23.20;99.90
5697;DHT22;2873;50.966;7.210;2023-09-08T00:41:14;23.20;99.90
5697;DHT22;2873;50.966;7.210;2023-09-08T00:43:40;23.10;99.90
5697;DHT22;2873;50.966;7.210;2023-09-08T00:46:06;23.10;99.90
5697;DHT22;2873;50.966;7.210;2023-09-08T00:48:32;23.10;99.90
5697;DHT22;2873;50.966;7.210;2023-09-08T00:50:59;23.00;99.90
5697;DHT22;2873;50.966;7.210;2023-09-08T00:53:25;22.90;99.90
5697;DHT22;2873;50.966;7.210;2023-09-08T00:55:51;22.80;99.90
5697;DHT22;2873;50.966;7.210;2023-09-08T00:58:17;22.60;99.90
5697;DHT22;2873;50.966;7.210;2023-09-08T01:00:43;22.70;99.90
5697;DHT22;2873;50.966;7.210;2023-09-08T01:03:11;22.80;99.90
5697;DHT22;2873;50.966;7.210;2023-09-08T01:05:36;22.80;99.90
5697;DHT22;2873;50.966;7.210;2023-09-08T01:08:02;22.90;99.90
5697;DHT22;2873;50.966;7.210;2023-09-08T01:10:29;22.80;99.90
5697;DHT22;2873;50.966;7.210;2023-09-08T01:12:54;22.80;99.90
5697;DHT22;2873;50.966;7.210;2023-09-08T01:15:20;22.80;99.90
5697;DHT22;2873;50.966;7.210;2023-09-08T01:17:45;22.80;99.90
5697;DHT22;2873;50.966;7.210;2023-09-08T01:25:22;22.60;99.90
5697;DHT22;2873;50.966;7.210;2023-09-08T01:27:53;22.60;99.90
5697;DHT22;2873;50.966;7.210;2023-09-08T01:30:21;22.40;99.90
5697;DHT22;2873;50.966;7.210;2023-09-08T01:32:47;22.50;99.90
5697;DHT22;2873;50.966;7.210;2023-09-08T01:35:13;22.50;99.90
5697;DHT22;2873;50.966;7.210;2023-09-08T01:37:45;22.50;99.90
5697;DHT22;2873;50.966;7.210;2023-09-08T01:40:12;22.30;99.90
5697;DHT22;2873;50.966;7.210;2023-09-08T01:42:39;22.20;99.90
5697;DHT22;2873;50.966;7.210;2023-09-08T01:45:05;22.20;99.90
5697;DHT22;2873;50.966;7.210;2023-09-08T01:47:31;22.20;99.90
5697;DHT22;2873;50.966;7.210;2023-09-08T01:49:57;22.20;99.90
5697;DHT22;2873;50.966;7.210;2023-09-08T01:52:23;22.20;99.90
5697;DHT22;2873;50.966;7.210;2023-09-08T01:54:49;22.30;99.90
5697;DHT22;2873;50.966;7.210;2023-09-08T01:57:14;22.30;99.90
5697;DHT22;2873;50.966;7.210;2023-09-08T01:59:40;22.30;99.90
5697;DHT22;2873;50.966;7.210;2023-09-08T02:02:05;22.20;99.90
5697;DHT22;2873;50.966;7.210;2023-09-08T02:04:32;22.30;99.90
5697;DHT22;2873;50.966;7.210;2023-09-08T02:07:00;22.10;99.90
5697;DHT22;2873;50.966;7.210;2023-09-08T02:09:31;22.00;99.90
5697;DHT22;2873;50.966;7.210;2023-09-08T02:11:57;22.00;99.90
5697;DHT22;2873;50.966;7.210;2023-09-08T02:14:23;22.00;99.90
5697;DHT22;2873;50.966;7.210;2023-09-08T02:16:48;22.00;99.90
5697;DHT22;2873;50.966;7.210;2023-09-08T02:19:14;21.90;99.90
5697;DHT22;2873;50.966;7.210;2023-09-08T02:21:39;22.00;99.90
5697;DHT22;2873;50.966;7.210;2023-09-08T02:24:05;22.00;99.90
5697;DHT22;2873;50.966;7.210;2023-09-08T02:26:30;22.00;99.90
5697;DHT22;2873;50.966;7.210;2023-09-08T02:28:59;21.90;99.90
5697;DHT22;2873;50.966;7.210;2023-09-08T02:31:24;22.00;99.90
5697;DHT22;2873;50.966;7.210;2023-09-08T02:33:50;21.90;99.90
5697;DHT22;2873;50.966;7.210;2023-09-08T02:36:15;21.90;99.90
5697;DHT22;2873;50.966;7.210;2023-09-08T02:38:41;22.00;99.90
5697;DHT22;2873;50.966;7.210;2023-09-08T02:41:06;22.00;99.90
5697;DHT22;2873;50.966;7.210;2023-09-08T02:43:32;21.80;99.90
5697;DHT22;2873;50.966;7.210;2023-09-08T02:45:57;21.70;99.90
5697;DHT22;2873;50.966;7.210;2023-09-08T02:48:23;21.70;99.90
5697;DHT22;2873;50.966;7.210;2023-09-08T02:50:48;21.70;99.90
5697;DHT22;2873;50.966;7.210;2023-09-08T02:53:14;21.70;99.90
5697;DHT22;2873;50.966;7.210;2023-09-08T02:55:39;21.60;99.90
5697;DHT22;2873;50.966;7.210;2023-09-08T02:58:05;21.60;99.90
5697;DHT22;2873;50.966;7.210;2023-09-08T03:00:30;21.50;99.90
5697;DHT22;2873;50.966;7.210;2023-09-08T03:02:56;21.40;99.90
5697;DHT22;2873;50.966;7.210;2023-09-08T03:05:21;21.30;99.90
5697;DHT22;2873;50.966;7.210;2023-09-08T03:07:50;21.30;99.90
5697;DHT22;2873;50.966;7.210;2023-09-08T03:10:15;21.30;99.90
5697;DHT22;2873;50.966;7.210;2023-09-08T03:12:41;21.30;99.90
5697;DHT22;2873;50.966;7.210;2023-09-08T03:15:07;21.30;99.90
5697;DHT22;2873;50.966;7.210;2023-09-08T03:17:33;21.20;99.90
5697;DHT22;2873;50.966;7.210;2023-09-08T03:19:59;21.20;99.90
5697;DHT22;2873;50.966;7.210;2023-09-08T03:22:25;21.20;99.90
5697;DHT22;2873;50.966;7.210;2023-09-08T03:24:50;21.20;99.90
5697;DHT22;2873;50.966;7.210;2023-09-08T03:27:16;21.30;99.90
5697;DHT22;2873;50.966;7.210;2023-09-08T03:29:41;21.10;99.90
5697;DHT22;2873;50.966;7.210;2023-09-08T03:32:07;21.10;99.90
5697;DHT22;2873;50.966;7.210;2023-09-08T03:34:33;21.20;99.90
5697;DHT22;2873;50.966;7.210;2023-09-08T03:36:58;21.30;99.90
5697;DHT22;2873;50.966;7.210;2023-09-08T03:39:24;21.20;99.90
5697;DHT22;2873;50.966;7.210;2023-09-08T03:41:49;21.20;99.90
5697;DHT22;2873;50.966;7.210;2023-09-08T03:44:15;21.10;99.90
5697;DHT22;2873;50.966;7.210;2023-09-08T03:46:40;21.00;99.90
5697;DHT22;2873;50.966;7.210;2023-09-08T03:49:06;21.00;99.90
5697;DHT22;2873;50.966;7.210;2023-09-08T03:51:32;21.00;99.90
5697;DHT22;2873;50.966;7.210;2023-09-08T03:53:58;21.00;99.90
5697;DHT22;2873;50.966;7.210;2023-09-08T03:56:24;21.10;99.90
5697;DHT22;2873;50.966;7.210;2023-09-08T03:58:49;21.10;99.90
5697;DHT22;2873;50.966;7.210;2023-09-08T04:01:15;21.00;99.90
5697;DHT22;2873;50.966;7.210;2023-09-08T04:03:40;21.10;99.90
5697;DHT22;2873;50.966;7.210;2023-09-08T04:06:06;20.90;99.90
5697;DHT22;2873;50.966;7.210;2023-09-08T04:08:32;20.90;99.90
5697;DHT22;2873;50.966;7.210;2023-09-08T04:10:57;20.80;99.90
5697;DHT22;2873;50.966;7.210;2023-09-08T04:13:23;20.90;99.90
5697;DHT22;2873;50.966;7.210;2023-09-08T04:15:48;20.90;99.90
5697;DHT22;2873;50.966;7.210;2023-09-08T04:18:14;20.80;99.90
5697;DHT22;2873;50.966;7.210;2023-09-08T04:20:39;20.90;99.90
5697;DHT22;2873;50.966;7.210;2023-09-08T04:23:05;21.00;99.90
5697;DHT22;2873;50.966;7.210;2023-09-08T04:25:30;20.80;99.90
5697;DHT22;2873;50.966;7.210;2023-09-08T04:27:56;20.90;99.90
5697;DHT22;2873;50.966;7.210;2023-09-08T04:30:21;20.80;99.90
5697;DHT22;2873;50.966;7.210;2023-09-08T04:32:47;20.80;99.90
5697;DHT22;2873;50.966;7.210;2023-09-08T04:35:12;20.80;99.90
5697;DHT22;2873;50.966;7.210;2023-09-08T04:37:38;20.80;99.90
5697;DHT22;2873;50.966;7.210;2023-09-08T04:40:05;20.80;99.90
5697;DHT22;2873;50.966;7.210;2023-09-08T04:42:31;20.80;99.90
5697;DHT22;2873;50.966;7.210;2023-09-08T04:44:56;20.70;99.90
5697;DHT22;2873;50.966;7.210;2023-09-08T04:47:22;20.80;99.90
5697;DHT22;2873;50.966;7.210;2023-09-08T04:49:47;20.80;99.90
5697;DHT22;2873;50.966;7.210;2023-09-08T04:52:13;20.70;99.90
5697;DHT22;2873;50.966;7.210;2023-09-08T04:54:39;20.70;99.90
5697;DHT22;2873;50.966;7.210;2023-09-08T04:57:04;20.80;99.90
5697;DHT22;2873;50.966;7.210;2023-09-08T04:59:30;20.90;99.90
5697;DHT22;2873;50.966;7.210;2023-09-08T05:01:56;20.80;99.90
5697;DHT22;2873;50.966;7.210;2023-09-08T05:04:21;21.00;99.90
5697;DHT22;2873;50.966;7.210;2023-09-08T05:06:47;20.90;99.90
5697;DHT22;2873;50.966;7.210;2023-09-08T05:09:13;20.90;99.90
5697;DHT22;2873;50.966;7.210;2023-09-08T05:11:38;20.90;99.90
5697;DHT22;2873;50.966;7.210;2023-09-08T05:14:04;20.90;99.90
5697;DHT22;2873;50.966;7.210;2023-09-08T05:16:30;20.80;99.90
5697;DHT22;2873;50.966;7.210;2023-09-08T05:19:03;20.90;99.90
5697;DHT22;2873;50.966;7.210;2023-09-08T05:21:30;20.80;99.90
5697;DHT22;2873;50.966;7.210;2023-09-08T05:23:56;20.80;99.90
5697;DHT22;2873;50.966;7.210;2023-09-08T05:26:21;20.90;99.90
5697;DHT22;2873;50.966;7.210;2023-09-08T05:28:47;20.90;99.90
5697;DHT22;2873;50.966;7.210;2023-09-08T05:31:12;20.90;99.90
5697;DHT22;2873;50.966;7.210;2023-09-08T05:33:38;20.90;99.90
5697;DHT22;2873;50.966;7.210;2023-09-08T05:36:03;20.80;99.90
5697;DHT22;2873;50.966;7.210;2023-09-08T05:38:29;20.90;99.90
5697;DHT22;2873;50.966;7.210;2023-09-08T05:40:55;21.00;99.90
5697;DHT22;2873;50.966;7.210;2023-09-08T05:43:21;21.00;99.90
5697;DHT22;2873;50.966;7.210;2023-09-08T05:45:46;21.00;99.90
5697;DHT22;2873;50.966;7.210;2023-09-08T05:48:12;21.00;99.90
5697;DHT22;2873;50.966;7.210;2023-09-08T05:50:38;21.00;99.90
5697;DHT22;2873;50.966;7.210;2023-09-08T05:53:03;21.10;99.90
5697;DHT22;2873;50.966;7.210;2023-09-08T05:55:29;21.00;99.90
5697;DHT22;2873;50.966;7.210;2023-09-08T05:57:55;21.00;99.90
5697;DHT22;2873;50.966;7.210;2023-09-08T06:00:21;20.90;99.90
5697;DHT22;2873;50.966;7.210;2023-09-08T06:02:47;21.10;99.90
5697;DHT22;2873;50.966;7.210;2023-09-08T06:05:13;21.10;99.90
5697;DHT22;2873;50.966;7.210;2023-09-08T06:07:38;21.10;99.90
5697;DHT22;2873;50.966;7.210;2023-09-08T06:10:04;21.10;99.90
5697;DHT22;2873;50.966;7.210;2023-09-08T06:12:30;21.20;99.90
5697;DHT22;2873;50.966;7.210;2023-09-08T06:14:55;21.30;99.90
5697;DHT22;2873;50.966;7.210;2023-09-08T06:17:21;21.40;99.90
5697;DHT22;2873;50.966;7.210;2023-09-08T06:19:46;21.40;99.90
5697;DHT22;2873;50.966;7.210;2023-09-08T06:22:12;21.50;99.90
5697;DHT22;2873;50.966;7.210;2023-09-08T06:24:38;21.50;99.90
5697;DHT22;2873;50.966;7.210;2023-09-08T06:27:03;21.70;99.90
5697;DHT22;2873;50.966;7.210;2023-09-08T06:29:29;21.70;99.90
5697;DHT22;2873;50.966;7.210;2023-09-08T06:31:55;21.70;99.90
5697;DHT22;2873;50.966;7.210;2023-09-08T06:34:20;21.70;99.90
5697;DHT22;2873;50.966;7.210;2023-09-08T06:36:48;21.70;99.90
5697;DHT22;2873;50.966;7.210;2023-09-08T06:39:14;21.80;99.90
5697;DHT22;2873;50.966;7.210;2023-09-08T06:41:40;21.90;99.90
5697;DHT22;2873;50.966;7.210;2023-09-08T06:44:05;21.90;99.90
5697;DHT22;2873;50.966;7.210;2023-09-08T06:46:31;22.20;99.90
5697;DHT22;2873;50.966;7.210;2023-09-08T06:48:57;22.00;99.90
5697;DHT22;2873;50.966;7.210;2023-09-08T06:51:22;22.00;99.90
5697;DHT22;2873;50.966;7.210;2023-09-08T06:53:57;22.00;99.90
5697;DHT22;2873;50.966;7.210;2023-09-08T06:56:25;22.20;99.90
5697;DHT22;2873;50.966;7.210;2023-09-08T06:58:50;22.10;99.90
5697;DHT22;2873;50.966;7.210;2023-09-08T07:01:17;22.10;99.90
5697;DHT22;2873;50.966;7.210;2023-09-08T07:03:42;22.20;99.90
5697;DHT22;2873;50.966;7.210;2023-09-08T07:06:08;22.20;99.90
5697;DHT22;2873;50.966;7.210;2023-09-08T07:08:33;22.30;99.90
5697;DHT22;2873;50.966;7.210;2023-09-08T07:10:59;22.30;99.90
5697;DHT22;2873;50.966;7.210;2023-09-08T07:13:25;22.30;99.90
5697;DHT22;2873;50.966;7.210;2023-09-08T07:15:50;22.30;99.90
5697;DHT22;2873;50.966;7.210;2023-09-08T07:18:16;22.30;99.90
5697;DHT22;2873;50.966;7.210;2023-09-08T07:20:46;22.30;99.90
5697;DHT22;2873;50.966;7.210;2023-09-08T07:23:12;22.30;99.90
5697;DHT22;2873;50.966;7.210;2023-09-08T07:25:38;22.40;99.90
5697;DHT22;2873;50.966;7.210;2023-09-08T07:28:04;22.40;99.90
5697;DHT22;2873;50.966;7.210;2023-09-08T07:30:31;22.50;99.90
5697;DHT22;2873;50.966;7.210;2023-09-08T07:32:57;22.60;99.90
5697;DHT22;2873;50.966;7.210;2023-09-08T07:35:23;22.60;99.90
5697;DHT22;2873;50.966;7.210;2023-09-08T07:37:49;22.70;99.90
5697;DHT22;2873;50.966;7.210;2023-09-08T07:40:15;22.70;99.90
5697;DHT22;2873;50.966;7.210;2023-09-08T07:42:41;22.80;99.90
5697;DHT22;2873;50.966;7.210;2023-09-08T07:45:07;22.90;99.90
5697;DHT22;2873;50.966;7.210;2023-09-08T07:47:45;22.80;99.90
5697;DHT22;2873;50.966;7.210;2023-09-08T07:50:22;22.90;99.90
5697;DHT22;2873;50.966;7.210;2023-09-08T07:52:49;23.00;99.90
5697;DHT22;2873;50.966;7.210;2023-09-08T07:55:15;23.00;99.90
5697;DHT22;2873;50.966;7.210;2023-09-08T07:57:42;23.00;99.90
5697;DHT22;2873;50.966;7.210;2023-09-08T08:00:09;23.10;99.90
5697;DHT22;2873;50.966;7.210;2023-09-08T08:02:58;23.20;99.90
5697;DHT22;2873;50.966;7.210;2023-09-08T08:05:26;23.20;99.90
5697;DHT22;2873;50.966;7.210;2023-09-08T08:07:51;23.30;99.90
5697;DHT22;2873;50.966;7.210;2023-09-08T08:10:18;23.30;99.90
5697;DHT22;2873;50.966;7.210;2023-09-08T08:12:43;23.30;99.90
5697;DHT22;2873;50.966;7.210;2023-09-08T08:15:10;23.30;99.90
5697;DHT22;2873;50.966;7.210;2023-09-08T08:17:36;23.40;99.90
5697;DHT22;2873;50.966;7.210;2023-09-08T08:20:04;23.60;99.90
5697;DHT22;2873;50.966;7.210;2023-09-08T08:22:35;23.50;99.90
5697;DHT22;2873;50.966;7.210;2023-09-08T08:25:01;23.60;99.90
5697;DHT22;2873;50.966;7.210;2023-09-08T08:27:26;23.60;99.90
5697;DHT22;2873;50.966;7.210;2023-09-08T08:29:52;23.70;99.90
5697;DHT22;2873;50.966;7.210;2023-09-08T08:32:18;23.80;99.90
5697;DHT22;2873;50.966;7.210;2023-09-08T08:34:43;23.70;99.90
5697;DHT22;2873;50.966;7.210;2023-09-08T08:37:10;23.90;99.90
5697;DHT22;2873;50.966;7.210;2023-09-08T08:39:36;23.90;99.90
5697;DHT22;2873;50.966;7.210;2023-09-08T08:42:07;23.90;99.90
5697;DHT22;2873;50.966;7.210;2023-09-08T08:44:34;24.00;99.90
5697;DHT22;2873;50.966;7.210;2023-09-08T08:47:02;24.10;99.90
5697;DHT22;2873;50.966;7.210;2023-09-08T08:49:30;24.10;99.90
5697;DHT22;2873;50.966;7.210;2023-09-08T08:51:58;24.20;99.90
5697;DHT22;2873;50.966;7.210;2023-09-08T08:54:24;24.40;99.90
5697;DHT22;2873;50.966;7.210;2023-09-08T08:56:50;24.30;99.90
5697;DHT22;2873;50.966;7.210;2023-09-08T08:59:16;24.30;99.90
5697;DHT22;2873;50.966;7.210;2023-09-08T09:01:43;24.40;99.90
5697;DHT22;2873;50.966;7.210;2023-09-08T09:04:12;24.70;99.90
5697;DHT22;2873;50.966;7.210;2023-09-08T09:06:38;24.60;99.90
5697;DHT22;2873;50.966;7.210;2023-09-08T09:09:04;24.70;99.90
5697;DHT22;2873;50.966;7.210;2023-09-08T09:11:30;24.70;99.90
5697;DHT22;2873;50.966;7.210;2023-09-08T09:13:57;24.70;99.90
5697;DHT22;2873;50.966;7.210;2023-09-08T09:16:23;24.80;99.90
5697;DHT22;2873;50.966;7.210;2023-09-08T09:18:59;24.80;99.90
5697;DHT22;2873;50.966;7.210;2023-09-08T09:21:44;24.90;99.90
5697;DHT22;2873;50.966;7.210;2023-09-08T09:24:17;24.90;99.90
5697;DHT22;2873;50.966;7.210;2023-09-08T09:26:43;25.00;99.90
5697;DHT22;2873;50.966;7.210;2023-09-08T09:29:15;25.00;99.90
5697;DHT22;2873;50.966;7.210;2023-09-08T09:31:53;25.10;99.90
5697;DHT22;2873;50.966;7.210;2023-09-08T09:34:20;25.20;99.90
5697;DHT22;2873;50.966;7.210;2023-09-08T09:36:48;25.30;99.90
5697;DHT22;2873;50.966;7.210;2023-09-08T09:39:22;25.40;99.90
5697;DHT22;2873;50.966;7.210;2023-09-08T09:41:52;25.40;99.90
5697;DHT22;2873;50.966;7.210;2023-09-08T09:44:18;25.50;99.90
5697;DHT22;2873;50.966;7.210;2023-09-08T09:46:45;25.70;99.90
5697;DHT22;2873;50.966;7.210;2023-09-08T09:49:15;25.70;99.90
5697;DHT22;2873;50.966;7.210;2023-09-08T09:51:48;25.80;99.90
5697;DHT22;2873;50.966;7.210;2023-09-08T09:54:15;25.90;99.90
5697;DHT22;2873;50.966;7.210;2023-09-08T09:56:41;26.10;99.90
5697;DHT22;2873;50.966;7.210;2023-09-08T09:59:12;26.00;99.90
5697;DHT22;2873;50.966;7.210;2023-09-08T10:01:41;26.00;99.90
5697;DHT22;2873;50.966;7.210;2023-09-08T10:04:08;26.10;99.90
5697;DHT22;2873;50.966;7.210;2023-09-08T10:06:35;26.20;99.90
5697;DHT22;2873;50.966;7.210;2023-09-08T10:09:01;26.20;99.90
5697;DHT22;2873;50.966;7.210;2023-09-08T10:11:45;26.30;99.90
5697;DHT22;2873;50.966;7.210;2023-09-08T10:14:12;26.40;99.90
5697;DHT22;2873;50.966;7.210;2023-09-08T10:16:39;26.50;99.90
5697;DHT22;2873;50.966;7.210;2023-09-08T10:19:10;26.50;99.90
5697;DHT22;2873;50.966;7.210;2023-09-08T10:21:45;26.70;99.90
5697;DHT22;2873;50.966;7.210;2023-09-08T10:24:34;26.80;99.90
5697;DHT22;2873;50.966;7.210;2023-09-08T10:27:10;26.90;99.90
5697;DHT22;2873;50.966;7.210;2023-09-08T10:29:37;27.00;99.90
5697;DHT22;2873;50.966;7.210;2023-09-08T10:32:03;26.90;99.90
5697;DHT22;2873;50.966;7.210;2023-09-08T10:34:30;27.00;99.90
5697;DHT22;2873;50.966;7.210;2023-09-08T10:36:57;27.20;99.90
5697;DHT22;2873;50.966;7.210;2023-09-08T10:39:35;27.20;99.90
5697;DHT22;2873;50.966;7.210;2023-09-08T10:47:39;27.40;99.90
5697;DHT22;2873;50.966;7.210;2023-09-08T10:50:03;27.50;99.90
5697;DHT22;2873;50.966;7.210;2023-09-08T10:52:30;27.50;99.90
5697;DHT22;2873;50.966;7.210;2023-09-08T10:54:58;27.60;99.90
5697;DHT22;2873;50.966;7.210;2023-09-08T10:57:25;27.60;99.90
5697;DHT22;2873;50.966;7.210;2023-09-08T10:59:55;27.70;99.90
5697;DHT22;2873;50.966;7.210;2023-09-08T11:02:49;27.70;99.90
5697;DHT22;2873;50.966;7.210;2023-09-08T11:05:19;27.80;99.90
5697;DHT22;2873;50.966;7.210;2023-09-08T11:07:48;27.80;99.90
5697;DHT22;2873;50.966;7.210;2023-09-08T11:10:18;28.00;99.90
5697;DHT22;2873;50.966;7.210;2023-09-08T11:12:44;28.10;99.90
5697;DHT22;2873;50.966;7.210;2023-09-08T11:15:10;28.10;99.90
5697;DHT22;2873;50.966;7.210;2023-09-08T11:17:37;28.20;99.90
5697;DHT22;2873;50.966;7.210;2023-09-08T11:20:07;28.30;99.90
5697;DHT22;2873;50.966;7.210;2023-09-08T11:22:35;28.40;99.90
5697;DHT22;2873;50.966;7.210;2023-09-08T11:25:01;28.40;99.90
5697;DHT22;2873;50.966;7.210;2023-09-08T11:27:30;28.50;99.90
5697;DHT22;2873;50.966;7.210;2023-09-08T11:29:56;28.60;99.90
5697;DHT22;2873;50.966;7.210;2023-09-08T11:32:23;28.60;99.90
5697;DHT22;2873;50.966;7.210;2023-09-08T11:34:49;28.70;99.90
5697;DHT22;2873;50.966;7.210;2023-09-08T11:37:17;28.80;99.90
5697;DHT22;2873;50.966;7.210;2023-09-08T11:42:56;29.00;99.90
5697;DHT22;2873;50.966;7.210;2023-09-08T11:45:21;29.10;99.90
5697;DHT22;2873;50.966;7.210;2023-09-08T11:47:48;29.20;99.90
5697;DHT22;2873;50.966;7.210;2023-09-08T11:50:18;29.30;99.90
5697;DHT22;2873;50.966;7.210;2023-09-08T11:52:49;29.40;99.90
5697;DHT22;2873;50.966;7.210;2023-09-08T11:55:16;29.50;99.90
5697;DHT22;2873;50.966;7.210;2023-09-08T11:57:43;29.50;99.90
5697;DHT22;2873;50.966;7.210;2023-09-08T12:00:10;29.60;99.90
5697;DHT22;2873;50.966;7.210;2023-09-08T12:02:40;29.60;99.90
5697;DHT22;2873;50.966;7.210;2023-09-08T12:05:05;29.60;99.90
5697;DHT22;2873;50.966;7.210;2023-09-08T12:07:37;29.80;99.90
5697;DHT22;2873;50.966;7.210;2023-09-08T12:10:08;29.80;99.90
5697;DHT22;2873;50.966;7.210;2023-09-08T12:12:40;29.70;99.90
5697;DHT22;2873;50.966;7.210;2023-09-08T12:15:06;29.90;99.70
5697;DHT22;2873;50.966;7.210;2023-09-08T12:17:35;30.00;99.90
5697;DHT22;2873;50.966;7.210;2023-09-08T12:20:15;30.10;99.90
5697;DHT22;2873;50.966;7.210;2023-09-08T12:22:49;30.30;99.90
5697;DHT22;2873;50.966;7.210;2023-09-08T12:25:18;30.40;99.90
5697;DHT22;2873;50.966;7.210;2023-09-08T12:27:45;30.60;99.90
5697;DHT22;2873;50.966;7.210;2023-09-08T12:30:17;30.80;99.90
5697;DHT22;2873;50.966;7.210;2023-09-08T12:32:46;31.00;99.90
5697;DHT22;2873;50.966;7.210;2023-09-08T12:35:20;31.10;99.90
5697;DHT22;2873;50.966;7.210;2023-09-08T12:38:03;31.20;99.90
5697;DHT22;2873;50.966;7.210;2023-09-08T12:40:33;31.40;99.90
5697;DHT22;2873;50.966;7.210;2023-09-08T12:42:59;31.50;99.90
5697;DHT22;2873;50.966;7.210;2023-09-08T12:45:25;31.80;99.50
5697;DHT22;2873;50.966;7.210;2023-09-08T12:47:51;31.90;99.00
5697;DHT22;2873;50.966;7.210;2023-09-08T12:50:17;32.00;99.50
5697;DHT22;2873;50.966;7.210;2023-09-08T12:52:43;32.20;98.70
5697;DHT22;2873;50.966;7.210;2023-09-08T12:55:10;32.50;98.40
5697;DHT22;2873;50.966;7.210;2023-09-08T12:57:41;33.10;98.80
5697;DHT22;2873;50.966;7.210;2023-09-08T13:00:08;34.10;98.10
5697;DHT22;2873;50.966;7.210;2023-09-08T13:02:39;36.80;95.90
5697;DHT22;2873;50.966;7.210;2023-09-08T13:05:05;38.60;93.40
5697;DHT22;2873;50.966;7.210;2023-09-08T13:07:31;40.30;91.80
5697;DHT22;2873;50.966;7.210;2023-09-08T13:09:56;41.40;89.50
5697;DHT22;2873;50.966;7.210;2023-09-08T13:12:22;42.20;84.90
5697;DHT22;2873;50.966;7.210;2023-09-08T13:14:48;42.80;82.00
5697;DHT22;2873;50.966;7.210;2023-09-08T13:17:14;43.40;78.80
5697;DHT22;2873;50.966;7.210;2023-09-08T13:19:41;44.40;76.80
5697;DHT22;2873;50.966;7.210;2023-09-08T13:22:07;45.20;75.70
5697;DHT22;2873;50.966;7.210;2023-09-08T13:24:33;45.80;74.50
5697;DHT22;2873;50.966;7.210;2023-09-08T13:27:00;46.80;71.60
5697;DHT22;2873;50.966;7.210;2023-09-08T13:29:25;47.60;71.70
5697;DHT22;2873;50.966;7.210;2023-09-08T13:31:52;47.50;71.10
5697;DHT22;2873;50.966;7.210;2023-09-08T13:34:18;47.30;68.40
5697;DHT22;2873;50.966;7.210;2023-09-08T13:36:43;47.50;68.10
5697;DHT22;2873;50.966;7.210;2023-09-08T13:39:09;46.80;68.70
5697;DHT22;2873;50.966;7.210;2023-09-08T13:41:51;46.70;68.00
5697;DHT22;2873;50.966;7.210;2023-09-08T13:44:22;45.80;69.10
5697;DHT22;2873;50.966;7.210;2023-09-08T13:46:48;44.70;69.90
5697;DHT22;2873;50.966;7.210;2023-09-08T13:49:14;45.70;70.90
5697;DHT22;2873;50.966;7.210;2023-09-08T13:51:40;46.50;68.00
5697;DHT22;2873;50.966;7.210;2023-09-08T13:54:06;48.40;68.10
5697;DHT22;2873;50.966;7.210;2023-09-08T13:56:32;49.60;65.10
5697;DHT22;2873;50.966;7.210;2023-09-08T13:58:57;49.80;63.60
5697;DHT22;2873;50.966;7.210;2023-09-08T14:01:23;49.80;62.10
5697;DHT22;2873;50.966;7.210;2023-09-08T14:03:48;49.70;61.10
5697;DHT22;2873;50.966;7.210;2023-09-08T14:06:20;49.90;61.10
5697;DHT22;2873;50.966;7.210;2023-09-08T14:08:46;50.90;60.90
5697;DHT22;2873;50.966;7.210;2023-09-08T14:11:11;51.00;60.80
5697;DHT22;2873;50.966;7.210;2023-09-08T14:13:39;50.90;60.70
5697;DHT22;2873;50.966;7.210;2023-09-08T14:16:05;51.00;59.00
5697;DHT22;2873;50.966;7.210;2023-09-08T14:18:30;50.80;59.20
5697;DHT22;2873;50.966;7.210;2023-09-08T14:20:56;51.30;58.50
5697;DHT22;2873;50.966;7.210;2023-09-08T14:23:22;51.60;58.20
5697;DHT22;2873;50.966;7.210;2023-09-08T14:25:47;51.60;57.50
5697;DHT22;2873;50.966;7.210;2023-09-08T14:28:13;52.00;57.80
5697;DHT22;2873;50.966;7.210;2023-09-08T14:30:38;51.40;57.80
5697;DHT22;2873;50.966;7.210;2023-09-08T14:33:06;51.60;57.90
5697;DHT22;2873;50.966;7.210;2023-09-08T14:35:32;51.60;57.50
5697;DHT22;2873;50.966;7.210;2023-09-08T14:37:57;51.00;58.00
5697;DHT22;2873;50.966;7.210;2023-09-08T14:40:23;50.10;58.40
5697;DHT22;2873;50.966;7.210;2023-09-08T14:42:48;49.10;59.80
5697;DHT22;2873;50.966;7.210;2023-09-08T14:45:14;47.70;60.60
5697;DHT22;2873;50.966;7.210;2023-09-08T14:47:39;46.70;61.20
5697;DHT22;2873;50.966;7.210;2023-09-08T14:50:05;45.30;62.20
5697;DHT22;2873;50.966;7.210;2023-09-08T14:52:31;44.00;63.20
5697;DHT22;2873;50.966;7.210;2023-09-08T14:54:57;43.20;65.20
5697;DHT22;2873;50.966;7.210;2023-09-08T14:57:22;42.80;65.90
5697;DHT22;2873;50.966;7.210;2023-09-08T14:59:48;42.20;66.10
5697;DHT22;2873;50.966;7.210;2023-09-08T15:02:14;41.60;66.90
5697;DHT22;2873;50.966;7.210;2023-09-08T15:04:40;41.80;67.00
5697;DHT22;2873;50.966;7.210;2023-09-08T15:07:06;43.30;64.90
5697;DHT22;2873;50.966;7.210;2023-09-08T15:09:32;44.60;62.90
5697;DHT22;2873;50.966;7.210;2023-09-08T15:11:58;45.10;61.90
5697;DHT22;2873;50.966;7.210;2023-09-08T15:14:24;44.50;62.20
5697;DHT22;2873;50.966;7.210;2023-09-08T15:16:49;43.70;64.10
5697;DHT22;2873;50.966;7.210;2023-09-08T15:19:15;43.50;65.10
5697;DHT22;2873;50.966;7.210;2023-09-08T15:21:41;42.20;66.90
5697;DHT22;2873;50.966;7.210;2023-09-08T15:24:07;41.40;68.20
5697;DHT22;2873;50.966;7.210;2023-09-08T15:26:32;40.80;69.10
5697;DHT22;2873;50.966;7.210;2023-09-08T15:28:58;40.50;69.70
5697;DHT22;2873;50.966;7.210;2023-09-08T15:31:25;40.10;70.20
5697;DHT22;2873;50.966;7.210;2023-09-08T15:33:50;39.90;71.00
5697;DHT22;2873;50.966;7.210;2023-09-08T15:36:17;40.00;70.30
5697;DHT22;2873;50.966;7.210;2023-09-08T15:38:43;40.20;71.00
5697;DHT22;2873;50.966;7.210;2023-09-08T15:43:39;39.50;71.40
5697;DHT22;2873;50.966;7.210;2023-09-08T15:46:05;38.50;72.00
5697;DHT22;2873;50.966;7.210;2023-09-08T15:48:32;38.20;72.80
5697;DHT22;2873;50.966;7.210;2023-09-08T15:50:58;37.90;73.80
5697;DHT22;2873;50.966;7.210;2023-09-08T15:53:23;37.70;73.90
5697;DHT22;2873;50.966;7.210;2023-09-08T15:55:49;37.30;74.40
5697;DHT22;2873;50.966;7.210;2023-09-08T15:58:14;37.70;74.00
5697;DHT22;2873;50.966;7.210;2023-09-08T16:00:40;38.40;73.50
5697;DHT22;2873;50.966;7.210;2023-09-08T16:03:06;39.10;72.80
5697;DHT22;2873;50.966;7.210;2023-09-08T16:05:31;39.30;72.60
5697;DHT22;2873;50.966;7.210;2023-09-08T16:07:57;39.10;72.30
5697;DHT22;2873;50.966;7.210;2023-09-08T16:10:23;38.40;73.10
5697;DHT22;2873;50.966;7.210;2023-09-08T16:12:48;37.90;75.00
5697;DHT22;2873;50.966;7.210;2023-09-08T16:15:15;37.40;75.30
5697;DHT22;2873;50.966;7.210;2023-09-08T16:17:40;36.90;75.90